| Date Time MST |
Temp °F |
RH % |
DewPt °F |
Wind mph |
Dir ° |
Gust mph |
Dir ° |
Press in Hg |
Solar W/m^2 |
Prec in |
|---|---|---|---|---|---|---|---|---|---|---|
| 2026-05-04 09:25 | 70.7 | 15.6 | 21.7 | 8.3 | 301 | 18.2 | 301 | 24.650 | 352.5 | 0.00 |
| 2026-05-04 09:20 | 70.1 | 18.6 | 25.5 | 6.9 | 258 | 11.2 | 246 | 24.650 | 432.3 | 0.00 |
| 2026-05-04 09:15 | 69.4 | 18.4 | 24.6 | 11.6 | 239 | 15.9 | 223 | 24.652 | 427.5 | 0.00 |
| 2026-05-04 09:10 | 69.3 | 18.5 | 24.6 | 12.1 | 237 | 15.9 | 243 | 24.650 | 366.8 | 0.00 |
| 2026-05-04 09:05 | 69.2 | 18.4 | 24.4 | 12.5 | 245 | 17.8 | 225 | 24.649 | 400.9 | 0.00 |
| 2026-05-04 09:00 | 69.2 | 17.8 | 23.6 | 12.6 | 223 | 18.0 | 234 | 24.651 | 474.4 | 0.00 |
| 2026-05-04 08:55 | 68.9 | 18.6 | 24.4 | 14.7 | 226 | 19.7 | 242 | 24.650 | 432.7 | 0.00 |
| 2026-05-04 08:50 | 69.3 | 18.9 | 25.1 | 12.0 | 232 | 18.8 | 237 | 24.649 | 395.0 | 0.00 |
| 2026-05-04 08:45 | 69.1 | 19.7 | 26.0 | 11.8 | 221 | 20.0 | 244 | 24.650 | 522.0 | 0.00 |
| 2026-05-04 08:40 | 68.6 | 19.2 | 25.0 | 12.0 | 230 | 17.7 | 239 | 24.652 | 477.6 | 0.00 |
| 2026-05-04 08:35 | 68.1 | 20.1 | 25.6 | 9.2 | 237 | 13.7 | 261 | 24.654 | 380.2 | 0.00 |
| 2026-05-04 08:30 | 67.8 | 19.8 | 25.0 | 14.8 | 276 | 21.0 | 260 | 24.656 | 365.6 | 0.00 |
| 2026-05-04 08:25 | 67.7 | 19.7 | 24.9 | 10.8 | 259 | 14.6 | 287 | 24.657 | 301.1 | 0.00 |
| 2026-05-04 08:20 | 67.5 | 20.9 | 26.0 | 10.2 | 256 | 15.2 | 281 | 24.657 | 341.2 | 0.00 |
| 2026-05-04 08:15 | 66.6 | 21.0 | 25.4 | 11.3 | 268 | 15.6 | 293 | 24.657 | 418.0 | 0.00 |
| 2026-05-04 08:10 | 63.2 | 23.1 | 24.9 | 9.2 | 275 | 17.1 | 269 | 24.659 | 359.4 | 0.00 |
| 2026-05-04 08:05 | 58.2 | 30.1 | 26.9 | 2.4 | 233 | 8.4 | 270 | 24.662 | 270.5 | 0.00 |
| 2026-05-04 08:00 | 56.9 | 34.4 | 29.2 | 3.6 | 314 | 5.6 | 31 | 24.663 | 243.6 | 0.00 |
| 2026-05-04 07:55 | 56.0 | 40.7 | 32.4 | 2.3 | 78 | 4.3 | 50 | 24.665 | 258.4 | 0.00 |
| 2026-05-04 07:50 | 54.5 | 41.3 | 31.4 | 4.5 | 59 | 5.8 | 43 | 24.667 | 287.2 | 0.00 |
| 2026-05-04 07:45 | 54.0 | 43.3 | 32.2 | 5.8 | 84 | 7.6 | 78 | 24.668 | 266.3 | 0.00 |
| 2026-05-04 07:40 | 53.8 | 45.2 | 33.1 | 5.0 | 71 | 7.4 | 80 | 24.669 | 237.7 | 0.00 |
| 2026-05-04 07:35 | 54.2 | 42.3 | 31.7 | 6.2 | 78 | 8.0 | 81 | 24.670 | 221.9 | 0.00 |
| 2026-05-04 07:30 | 55.1 | 41.7 | 32.3 | 4.5 | 83 | 6.6 | 83 | 24.671 | 239.5 | 0.00 |
| 2026-05-04 07:25 | 54.9 | 38.2 | 29.9 | 4.2 | 13 | 6.1 | 38 | 24.673 | 228.7 | 0.00 |
| 2026-05-04 07:20 | 54.6 | 36.8 | 28.7 | 4.8 | 36 | 7.6 | 18 | 24.674 | 211.6 | 0.00 |
| 2026-05-04 07:15 | 54.0 | 40.0 | 30.3 | 2.4 | 355 | 6.0 | 357 | 24.675 | 245.2 | 0.00 |
| 2026-05-04 07:10 | 53.1 | 42.3 | 30.8 | 5.1 | 17 | 6.8 | 16 | 24.675 | 224.8 | 0.00 |
| 2026-05-04 07:05 | 52.3 | 42.3 | 30.1 | 6.8 | 14 | 10.4 | 9 | 24.675 | 201.8 | 0.00 |
| 2026-05-04 07:00 | 52.6 | 46.9 | 32.9 | 5.6 | 12 | 8.8 | 9 | 24.678 | 206.4 | 0.00 |
| Date Time MST |
Temp °C |
RH % |
DewPt °C |
Wind m/s |
Dir ° |
Gust m/s |
Dir ° |
Press hPa |
Solar W/m^2 |
Prec mm |
|---|---|---|---|---|---|---|---|---|---|---|
| 2026-05-04 09:25 | 21.5 | 15.6 | -5.7 | 3.7 | 301 | 8.1 | 301 | 834.73 | 352.5 | 0.00 |
| 2026-05-04 09:20 | 21.2 | 18.6 | -3.6 | 3.1 | 258 | 5.0 | 246 | 834.75 | 432.3 | 0.00 |
| 2026-05-04 09:15 | 20.8 | 18.4 | -4.1 | 5.2 | 239 | 7.1 | 223 | 834.81 | 427.5 | 0.00 |
| 2026-05-04 09:10 | 20.7 | 18.5 | -4.1 | 5.4 | 237 | 7.1 | 243 | 834.74 | 366.8 | 0.00 |
| 2026-05-04 09:05 | 20.7 | 18.4 | -4.2 | 5.6 | 245 | 7.9 | 225 | 834.72 | 400.9 | 0.00 |
| 2026-05-04 09:00 | 20.7 | 17.8 | -4.7 | 5.6 | 223 | 8.0 | 234 | 834.77 | 474.4 | 0.00 |
| 2026-05-04 08:55 | 20.5 | 18.6 | -4.2 | 6.6 | 226 | 8.8 | 242 | 834.73 | 432.7 | 0.00 |
| 2026-05-04 08:50 | 20.7 | 18.9 | -3.8 | 5.3 | 232 | 8.4 | 237 | 834.72 | 395.0 | 0.00 |
| 2026-05-04 08:45 | 20.6 | 19.7 | -3.3 | 5.3 | 221 | 8.9 | 244 | 834.76 | 522.0 | 0.00 |
| 2026-05-04 08:40 | 20.3 | 19.2 | -3.9 | 5.4 | 230 | 7.9 | 239 | 834.81 | 477.6 | 0.00 |
| 2026-05-04 08:35 | 20.0 | 20.1 | -3.6 | 4.1 | 237 | 6.1 | 261 | 834.87 | 380.2 | 0.00 |
| 2026-05-04 08:30 | 19.9 | 19.8 | -3.9 | 6.6 | 276 | 9.4 | 260 | 834.94 | 365.6 | 0.00 |
| 2026-05-04 08:25 | 19.9 | 19.7 | -4.0 | 4.8 | 259 | 6.5 | 287 | 834.97 | 301.1 | 0.00 |
| 2026-05-04 08:20 | 19.7 | 20.9 | -3.3 | 4.6 | 256 | 6.8 | 281 | 834.98 | 341.2 | 0.00 |
| 2026-05-04 08:15 | 19.2 | 21.0 | -3.7 | 5.1 | 268 | 7.0 | 293 | 834.99 | 418.0 | 0.00 |
| 2026-05-04 08:10 | 17.3 | 23.1 | -4.0 | 4.1 | 275 | 7.6 | 269 | 835.04 | 359.4 | 0.00 |
| 2026-05-04 08:05 | 14.5 | 30.1 | -2.8 | 1.1 | 233 | 3.8 | 270 | 835.14 | 270.5 | 0.00 |
| 2026-05-04 08:00 | 13.9 | 34.4 | -1.6 | 1.6 | 314 | 2.5 | 31 | 835.20 | 243.6 | 0.00 |
| 2026-05-04 07:55 | 13.3 | 40.7 | 0.2 | 1.0 | 78 | 1.9 | 50 | 835.26 | 258.4 | 0.00 |
| 2026-05-04 07:50 | 12.5 | 41.3 | -0.3 | 2.0 | 59 | 2.6 | 43 | 835.31 | 287.2 | 0.00 |
| 2026-05-04 07:45 | 12.2 | 43.3 | 0.1 | 2.6 | 84 | 3.4 | 78 | 835.35 | 266.3 | 0.00 |
| 2026-05-04 07:40 | 12.1 | 45.2 | 0.6 | 2.2 | 71 | 3.3 | 80 | 835.39 | 237.7 | 0.00 |
| 2026-05-04 07:35 | 12.3 | 42.3 | -0.1 | 2.8 | 78 | 3.6 | 81 | 835.41 | 221.9 | 0.00 |
| 2026-05-04 07:30 | 12.8 | 41.7 | 0.1 | 2.0 | 83 | 3.0 | 83 | 835.44 | 239.5 | 0.00 |
| 2026-05-04 07:25 | 12.7 | 38.2 | -1.2 | 1.9 | 13 | 2.7 | 38 | 835.52 | 228.7 | 0.00 |
| 2026-05-04 07:20 | 12.5 | 36.8 | -1.8 | 2.2 | 36 | 3.4 | 18 | 835.56 | 211.6 | 0.00 |
| 2026-05-04 07:15 | 12.2 | 40.0 | -1.0 | 1.1 | 355 | 2.7 | 357 | 835.58 | 245.2 | 0.00 |
| 2026-05-04 07:10 | 11.7 | 42.3 | -0.7 | 2.3 | 17 | 3.0 | 16 | 835.58 | 224.8 | 0.00 |
| 2026-05-04 07:05 | 11.3 | 42.3 | -1.1 | 3.0 | 14 | 4.7 | 9 | 835.58 | 201.8 | 0.00 |
| 2026-05-04 07:00 | 11.4 | 46.9 | 0.5 | 2.5 | 12 | 3.9 | 9 | 835.69 | 206.4 | 0.00 |






